createdAt,value
2018-08-09T00:02:04.778Z,1.7
2018-08-09T00:07:07.094Z,3.3
2018-08-09T00:12:09.355Z,1.1
2018-08-09T00:17:11.706Z,2.1
2018-08-09T00:22:14.120Z,2.9
2018-08-09T00:27:16.305Z,1.9
2018-08-09T00:32:18.563Z,2.6
2018-08-09T00:37:20.850Z,2.6
2018-08-09T00:42:23.229Z,2.8
2018-08-09T00:47:25.434Z,2.6
2018-08-09T00:52:27.870Z,3.9
2018-08-09T00:57:30.012Z,1.6
2018-08-09T01:02:32.443Z,3.7
2018-08-09T01:07:34.633Z,4.4
2018-08-09T01:12:36.865Z,3.6
2018-08-09T01:17:39.323Z,1.4
2018-08-09T01:22:41.552Z,4.8
2018-08-09T01:27:43.826Z,2.5
2018-08-09T01:32:46.153Z,2.8
2018-08-09T01:37:48.390Z,3.2
2018-08-09T01:42:50.706Z,2.6
2018-08-09T01:47:53.046Z,5.3
2018-08-09T01:52:55.380Z,3
2018-08-09T01:57:57.515Z,3.2
2018-08-09T02:02:59.905Z,5.5
2018-08-09T02:08:02.113Z,4.5
2018-08-09T02:13:04.358Z,5.3
2018-08-09T02:18:06.714Z,6.2
2018-08-09T02:23:09.070Z,3.6
2018-08-09T02:28:11.293Z,3.9
2018-08-09T02:33:13.581Z,4.2
2018-08-09T02:38:15.890Z,4.9
2018-08-09T02:43:18.481Z,2.8
2018-08-09T02:48:20.597Z,2.5
2018-08-09T02:53:22.820Z,4.4
2018-08-09T02:58:25.084Z,4.4
2018-08-09T03:03:27.360Z,2.5
2018-08-09T03:08:29.712Z,3
2018-08-09T03:13:31.944Z,5
2018-08-09T03:18:34.309Z,4
2018-08-09T03:23:36.551Z,2.9
2018-08-09T03:28:38.859Z,3.1
2018-08-09T03:33:41.058Z,3.8
2018-08-09T03:38:43.437Z,2.9
2018-08-09T03:43:45.644Z,3.3
2018-08-09T03:48:47.973Z,3.1
2018-08-09T03:53:50.232Z,2.7
2018-08-09T03:58:52.606Z,3.9
2018-08-09T04:03:54.839Z,3.4
2018-08-09T04:08:58.344Z,4.5
2018-08-09T04:13:59.479Z,2.4
2018-08-09T04:19:01.856Z,2.5
2018-08-09T04:24:03.987Z,3.8
2018-08-09T04:29:06.307Z,4.5
2018-08-09T04:34:08.612Z,1.8
2018-08-09T04:44:13.400Z,5.6
2018-08-09T04:49:15.595Z,7.5
2018-08-09T04:54:17.739Z,10.1
2018-08-09T04:59:20.217Z,9.4
2018-08-09T05:04:22.385Z,9.2
2018-08-09T05:09:24.783Z,9.6
2018-08-09T05:14:27.026Z,12
2018-08-09T05:19:29.307Z,11.9
2018-08-09T05:24:31.588Z,14.1
2018-08-09T05:29:33.833Z,8
2018-08-09T05:34:37.271Z,7.5
2018-08-09T05:39:38.382Z,7.2
2018-08-09T05:44:40.813Z,6.1
2018-08-09T05:49:43.034Z,4.4
2018-08-09T05:54:45.356Z,5.9
2018-08-09T05:59:47.581Z,6.2
2018-08-09T06:04:49.849Z,3
2018-08-09T06:09:52.294Z,4.2
2018-08-09T06:14:54.627Z,2.3
2018-08-09T06:19:56.792Z,5
2018-08-09T06:24:59.127Z,5.4
2018-08-09T06:35:03.718Z,2.9
2018-08-09T06:40:06.097Z,2.6
2018-08-09T06:45:08.337Z,4.2
2018-08-09T06:50:10.646Z,3
2018-08-09T06:55:12.950Z,2.6
2018-08-09T07:00:15.131Z,2.6
2018-08-09T07:05:17.472Z,3.1
2018-08-09T07:10:19.736Z,3.8
2018-08-09T07:15:22.053Z,2.5
2018-08-09T07:20:24.432Z,3.5
2018-08-09T07:25:26.722Z,3.7
2018-08-09T07:30:28.888Z,2.4
2018-08-09T07:35:31.346Z,1.5
2018-08-09T07:40:33.470Z,2.1
2018-08-09T07:50:38.177Z,4.8
2018-08-09T07:55:40.474Z,3.6
2018-08-09T08:00:42.795Z,2.6
2018-08-09T08:05:45.060Z,4
2018-08-09T08:10:47.420Z,2.7
2018-08-09T08:15:49.601Z,3.6
2018-08-09T08:20:53.666Z,3.2
2018-08-09T08:25:54.277Z,4.7
2018-08-09T08:30:56.448Z,3
2018-08-09T08:35:58.833Z,3.4
2018-08-09T08:41:01.024Z,3.5
2018-08-09T08:46:03.290Z,3.4
2018-08-09T08:51:05.760Z,4.6
2018-08-09T08:56:07.969Z,2.5
2018-08-09T09:01:10.207Z,4.7
2018-08-09T09:06:12.447Z,4.4
2018-08-09T09:11:14.984Z,3.8
2018-08-09T09:16:17.070Z,6
2018-08-09T09:21:19.376Z,6.4
2018-08-09T09:26:21.715Z,4.8
2018-08-09T09:31:24.023Z,4.3
2018-08-09T09:36:26.321Z,4.7
2018-08-09T09:41:28.673Z,5.8
2018-08-09T09:46:30.854Z,5.9
2018-08-09T09:51:33.251Z,7.7
2018-08-09T09:56:35.511Z,8.2
2018-08-09T10:01:37.838Z,4.9
2018-08-09T10:06:40.044Z,5.8
2018-08-09T10:11:42.436Z,6.7
2018-08-09T10:16:44.659Z,5.7
2018-08-09T10:21:47.014Z,5.7
2018-08-09T10:26:49.268Z,5.3
2018-08-09T10:31:51.616Z,7.3
2018-08-09T10:36:53.849Z,6.7
2018-08-09T10:41:56.180Z,5.8
2018-08-09T10:46:58.519Z,6.6
2018-08-09T10:52:00.833Z,6.5
2018-08-09T10:57:02.921Z,8.4
2018-08-09T11:02:05.282Z,9.4
2018-08-09T11:07:07.672Z,8.2
2018-08-09T11:12:09.882Z,8.1
2018-08-09T11:17:12.135Z,10.8
2018-08-09T11:22:14.496Z,13.6
2018-08-09T11:27:16.833Z,13.1
2018-08-09T11:32:19.070Z,15.7
2018-08-09T11:37:21.301Z,18.1
2018-08-09T11:42:23.793Z,13.5
2018-08-09T11:47:25.987Z,16.9
2018-08-09T11:52:28.247Z,16.299999
2018-08-09T11:57:30.662Z,17.200001
2018-08-09T12:02:32.832Z,13
2018-08-09T12:07:35.150Z,15.6
2018-08-09T12:12:37.463Z,12.6
2018-08-09T12:17:39.752Z,18.6
2018-08-09T12:22:42.115Z,17
2018-08-09T12:27:44.268Z,16.299999
2018-08-09T12:32:46.673Z,19
2018-08-09T12:37:49.005Z,15.7
2018-08-09T12:42:51.153Z,19.4
2018-08-09T12:47:53.628Z,13.4
2018-08-09T12:52:55.833Z,15.1
2018-08-09T12:57:58.103Z,14.3
2018-08-09T13:03:00.474Z,13.7
2018-08-09T13:08:02.723Z,13
2018-08-09T13:13:05.117Z,16.4
2018-08-09T13:18:07.284Z,15.8
2018-08-09T13:23:09.636Z,12.2
2018-08-09T13:28:11.908Z,14.4
2018-08-09T13:33:14.222Z,13.3
2018-08-09T13:38:16.453Z,12.8
2018-08-09T13:43:18.828Z,15
2018-08-09T13:48:21.174Z,13.4
2018-08-09T13:53:23.375Z,10.9
2018-08-09T13:58:25.717Z,11.9
2018-08-09T14:03:27.877Z,13
2018-08-09T14:08:30.378Z,11.1
2018-08-09T14:13:32.551Z,12
2018-08-09T14:18:34.911Z,11.6
2018-08-09T14:23:37.118Z,14
2018-08-09T14:28:39.324Z,14.1
2018-08-09T14:33:41.703Z,18.4
2018-08-09T14:38:44.019Z,15.3
2018-08-09T14:43:46.370Z,15.7
2018-08-09T14:48:48.692Z,15.6
2018-08-09T14:53:50.892Z,14.4
2018-08-09T14:58:53.326Z,10.8
2018-08-09T15:03:55.490Z,14.8
2018-08-09T15:08:57.957Z,12
2018-08-09T15:14:00.102Z,12.3
2018-08-09T15:19:02.387Z,10.7
2018-08-09T15:24:04.610Z,10.5
2018-08-09T15:29:06.870Z,12.2
2018-08-09T15:34:09.252Z,10.4
2018-08-09T15:39:12.950Z,7
2018-08-09T15:44:13.864Z,10.3
2018-08-09T15:49:16.249Z,6.1
2018-08-09T15:54:18.446Z,7.1
2018-08-09T15:59:20.714Z,4.7
2018-08-09T16:04:22.998Z,3.9
2018-08-09T16:09:25.333Z,3.6
2018-08-09T16:14:27.513Z,1.8
2018-08-09T16:19:29.933Z,2.6
2018-08-09T16:24:32.220Z,2.1
2018-08-09T16:29:34.531Z,3.7
2018-08-09T16:34:36.864Z,4.3
2018-08-09T16:39:39.134Z,1.7
2018-08-09T16:44:41.268Z,1.2
2018-08-09T16:49:43.593Z,1.4
2018-08-09T16:54:45.957Z,1.8
2018-08-09T16:59:48.258Z,1.4
2018-08-09T17:04:50.592Z,3
2018-08-09T17:09:52.927Z,2.9
2018-08-09T17:14:55.244Z,1.4
2018-08-09T17:19:57.357Z,2.1
2018-08-09T17:24:59.777Z,3.3
2018-08-09T17:30:01.970Z,1.4
2018-08-09T17:35:04.254Z,2.7
2018-08-09T17:40:06.632Z,1.1
2018-08-09T17:45:08.868Z,2
2018-08-09T17:50:11.164Z,3.7
2018-08-09T17:55:13.579Z,4.8
2018-08-09T18:00:15.844Z,6
2018-08-09T18:05:18.015Z,7.6
2018-08-09T18:10:20.362Z,7.9
2018-08-09T18:15:22.756Z,8.2
2018-08-09T18:20:24.964Z,5.1
2018-08-09T18:25:27.212Z,4.9
2018-08-09T18:30:30.847Z,2.3
2018-08-09T18:35:31.950Z,2.2
2018-08-09T18:40:34.080Z,1.1
2018-08-09T18:45:36.486Z,2.3
2018-08-09T18:50:38.616Z,2.1
2018-08-09T18:55:40.971Z,3
2018-08-09T19:00:43.340Z,2.6
2018-08-09T19:05:45.583Z,3
2018-08-09T19:10:47.981Z,2.8
2018-08-09T19:15:50.135Z,2.6
2018-08-09T19:20:52.542Z,1.5
2018-08-09T19:25:54.946Z,2.5
2018-08-09T19:30:57.088Z,2.7
2018-08-09T19:35:59.393Z,2
2018-08-09T19:41:01.733Z,2.7
2018-08-09T19:46:03.940Z,1.4
2018-08-09T19:51:07.443Z,2.4
2018-08-09T19:56:08.657Z,1.4
2018-08-09T20:01:10.886Z,1.2
2018-08-09T20:06:13.119Z,1.9
2018-08-09T20:11:15.356Z,2.7
2018-08-09T20:16:17.813Z,4.2
2018-08-09T20:21:20.103Z,3.1
2018-08-09T20:26:22.314Z,2.3
2018-08-09T20:31:24.622Z,2.4
2018-08-09T20:36:26.792Z,0.8
2018-08-09T20:41:29.313Z,1.1
2018-08-09T20:46:31.464Z,1.7
2018-08-09T20:51:33.687Z,2.1
2018-08-09T20:56:36.105Z,3.6
2018-08-09T21:01:38.382Z,0.9
2018-08-09T21:06:40.624Z,1.8
2018-08-09T21:11:43.031Z,3.8
2018-08-09T21:16:45.350Z,2
2018-08-09T21:21:47.507Z,2.9
2018-08-09T21:26:49.898Z,4.2
2018-08-09T21:31:52.072Z,3.9
2018-08-09T21:36:54.420Z,2.5
2018-08-09T21:41:56.722Z,4.4
2018-08-09T21:47:00.782Z,2.6
2018-08-09T21:52:01.363Z,3.2
2018-08-09T21:57:03.565Z,2.7
2018-08-09T22:02:05.936Z,2.1
2018-08-09T22:07:08.149Z,3.6
2018-08-09T22:12:10.760Z,1.9
2018-08-09T22:17:12.742Z,1.4
2018-08-09T22:22:15.122Z,2.3
2018-08-09T22:27:17.545Z,3.4
2018-08-09T22:32:19.748Z,5.1
2018-08-09T22:37:21.950Z,2.6
2018-08-09T22:42:24.326Z,2.1
2018-08-09T22:47:26.600Z,2.6
2018-08-09T22:52:28.858Z,2.2
2018-08-09T22:57:31.180Z,2.8
2018-08-09T23:02:33.540Z,2.2
2018-08-09T23:07:35.875Z,2.7
2018-08-09T23:12:38.027Z,3.2
2018-08-09T23:17:40.324Z,2.6
2018-08-09T23:22:42.564Z,2
2018-08-09T23:27:44.965Z,3.6
2018-08-09T23:32:47.156Z,2.6
2018-08-09T23:37:49.540Z,1.8
2018-08-09T23:42:51.840Z,3.9
2018-08-09T23:47:54.114Z,2.8
2018-08-09T23:52:56.372Z,2.7
2018-08-09T23:57:58.709Z,4.2
